sensor_id;sensor_type;location;lat;lon;timestamp;temperature;humidity
74359;DHT22;62792;46.236;6.040;2023-05-15T00:02:35;23.50;53.00
74359;DHT22;62792;46.236;6.040;2023-05-15T00:07:39;23.50;52.90
74359;DHT22;62792;46.236;6.040;2023-05-15T00:12:43;23.50;53.10
74359;DHT22;62792;46.236;6.040;2023-05-15T00:17:46;23.50;53.00
74359;DHT22;62792;46.236;6.040;2023-05-15T00:22:49;23.50;53.20
74359;DHT22;62792;46.236;6.040;2023-05-15T00:27:53;23.50;53.10
74359;DHT22;62792;46.236;6.040;2023-05-15T00:32:56;23.50;53.10
74359;DHT22;62792;46.236;6.040;2023-05-15T00:37:59;23.50;53.10
74359;DHT22;62792;46.236;6.040;2023-05-15T00:43:03;23.40;52.80
74359;DHT22;62792;46.236;6.040;2023-05-15T00:48:08;23.50;53.20
74359;DHT22;62792;46.236;6.040;2023-05-15T00:53:11;23.50;53.10
74359;DHT22;62792;46.236;6.040;2023-05-15T00:58:15;23.40;53.00
74359;DHT22;62792;46.236;6.040;2023-05-15T01:03:18;23.40;52.80
74359;DHT22;62792;46.236;6.040;2023-05-15T01:08:22;23.50;52.90
74359;DHT22;62792;46.236;6.040;2023-05-15T01:13:29;23.40;53.10
74359;DHT22;62792;46.236;6.040;2023-05-15T01:18:32;23.30;52.90
74359;DHT22;62792;46.236;6.040;2023-05-15T01:23:37;23.40;53.00
74359;DHT22;62792;46.236;6.040;2023-05-15T01:28:50;23.40;53.00
74359;DHT22;62792;46.236;6.040;2023-05-15T01:33:58;23.40;53.00
74359;DHT22;62792;46.236;6.040;2023-05-15T01:39:04;23.40;53.10
74359;DHT22;62792;46.236;6.040;2023-05-15T01:44:13;23.30;53.10
74359;DHT22;62792;46.236;6.040;2023-05-15T01:49:18;23.30;53.20
74359;DHT22;62792;46.236;6.040;2023-05-15T01:54:26;23.30;53.20
74359;DHT22;62792;46.236;6.040;2023-05-15T01:59:31;23.30;52.90
74359;DHT22;62792;46.236;6.040;2023-05-15T02:04:34;23.30;53.30
74359;DHT22;62792;46.236;6.040;2023-05-15T02:09:38;23.30;53.20
74359;DHT22;62792;46.236;6.040;2023-05-15T02:14:43;23.30;53.00
74359;DHT22;62792;46.236;6.040;2023-05-15T02:19:46;23.40;53.30
74359;DHT22;62792;46.236;6.040;2023-05-15T02:24:49;23.30;53.20
74359;DHT22;62792;46.236;6.040;2023-05-15T02:29:57;23.30;53.20
74359;DHT22;62792;46.236;6.040;2023-05-15T02:35:10;23.30;53.20
74359;DHT22;62792;46.236;6.040;2023-05-15T02:40:18;23.30;53.20
74359;DHT22;62792;46.236;6.040;2023-05-15T02:45:23;23.20;53.10
74359;DHT22;62792;46.236;6.040;2023-05-15T02:50:27;23.30;53.30
74359;DHT22;62792;46.236;6.040;2023-05-15T02:55:30;23.20;53.10
74359;DHT22;62792;46.236;6.040;2023-05-15T03:00:34;23.30;53.00
74359;DHT22;62792;46.236;6.040;2023-05-15T03:05:37;23.30;53.00
74359;DHT22;62792;46.236;6.040;2023-05-15T03:10:40;23.20;53.20
74359;DHT22;62792;46.236;6.040;2023-05-15T03:15:45;23.30;53.20
74359;DHT22;62792;46.236;6.040;2023-05-15T03:20:50;23.20;53.20
74359;DHT22;62792;46.236;6.040;2023-05-15T03:25:53;23.10;53.10
74359;DHT22;62792;46.236;6.040;2023-05-15T03:30:57;23.20;52.90
74359;DHT22;62792;46.236;6.040;2023-05-15T03:36:01;23.20;53.20
74359;DHT22;62792;46.236;6.040;2023-05-15T03:41:03;23.20;53.30
74359;DHT22;62792;46.236;6.040;2023-05-15T03:46:08;23.10;53.20
74359;DHT22;62792;46.236;6.040;2023-05-15T03:51:10;23.10;53.10
74359;DHT22;62792;46.236;6.040;2023-05-15T03:56:13;23.20;53.20
74359;DHT22;62792;46.236;6.040;2023-05-15T04:01:18;23.20;53.10
74359;DHT22;62792;46.236;6.040;2023-05-15T04:06:20;23.10;53.10
74359;DHT22;62792;46.236;6.040;2023-05-15T04:11:24;23.10;53.00
74359;DHT22;62792;46.236;6.040;2023-05-15T04:16:28;23.20;53.20
74359;DHT22;62792;46.236;6.040;2023-05-15T04:21:31;23.10;53.10
74359;DHT22;62792;46.236;6.040;2023-05-15T04:26:34;23.10;53.30
74359;DHT22;62792;46.236;6.040;2023-05-15T04:31:39;23.10;53.10
74359;DHT22;62792;46.236;6.040;2023-05-15T04:36:42;23.10;53.10
74359;DHT22;62792;46.236;6.040;2023-05-15T04:41:45;23.10;53.10
74359;DHT22;62792;46.236;6.040;2023-05-15T04:46:49;23.10;52.90
74359;DHT22;62792;46.236;6.040;2023-05-15T04:51:52;23.10;53.00
74359;DHT22;62792;46.236;6.040;2023-05-15T04:56:55;23.10;52.90
74359;DHT22;62792;46.236;6.040;2023-05-15T05:02:01;23.10;52.90
74359;DHT22;62792;46.236;6.040;2023-05-15T05:07:04;23.20;52.90
74359;DHT22;62792;46.236;6.040;2023-05-15T05:12:07;23.10;52.70
74359;DHT22;62792;46.236;6.040;2023-05-15T05:17:11;23.10;52.90
74359;DHT22;62792;46.236;6.040;2023-05-15T05:22:15;23.10;52.90
74359;DHT22;62792;46.236;6.040;2023-05-15T05:27:18;23.20;52.80
74359;DHT22;62792;46.236;6.040;2023-05-15T05:32:23;23.20;52.60
74359;DHT22;62792;46.236;6.040;2023-05-15T05:37:26;23.00;52.80
74359;DHT22;62792;46.236;6.040;2023-05-15T05:42:29;23.20;52.60
74359;DHT22;62792;46.236;6.040;2023-05-15T05:47:33;23.20;52.60
74359;DHT22;62792;46.236;6.040;2023-05-15T05:52:36;23.20;52.60
74359;DHT22;62792;46.236;6.040;2023-05-15T05:57:39;23.20;52.70
74359;DHT22;62792;46.236;6.040;2023-05-15T06:02:45;23.20;52.60
74359;DHT22;62792;46.236;6.040;2023-05-15T06:07:48;23.20;52.50
74359;DHT22;62792;46.236;6.040;2023-05-15T06:12:51;23.20;52.60
74359;DHT22;62792;46.236;6.040;2023-05-15T06:17:55;23.30;52.70
74359;DHT22;62792;46.236;6.040;2023-05-15T06:22:58;23.20;52.60
74359;DHT22;62792;46.236;6.040;2023-05-15T06:28:01;23.20;52.40
74359;DHT22;62792;46.236;6.040;2023-05-15T06:33:05;23.30;52.50
74359;DHT22;62792;46.236;6.040;2023-05-15T06:38:08;23.30;52.50
74359;DHT22;62792;46.236;6.040;2023-05-15T06:43:11;23.30;52.50
74359;DHT22;62792;46.236;6.040;2023-05-15T06:48:15;22.90;54.20
74359;DHT22;62792;46.236;6.040;2023-05-15T06:53:19;22.50;55.50
74359;DHT22;62792;46.236;6.040;2023-05-15T06:58:22;22.60;56.30
74359;DHT22;62792;46.236;6.040;2023-05-15T07:03:27;23.20;56.50
74359;DHT22;62792;46.236;6.040;2023-05-15T07:08:30;23.40;56.10
74359;DHT22;62792;46.236;6.040;2023-05-15T07:13:33;22.90;56.60
74359;DHT22;62792;46.236;6.040;2023-05-15T07:18:37;22.60;56.70
74359;DHT22;62792;46.236;6.040;2023-05-15T07:23:40;22.40;56.70
74359;DHT22;62792;46.236;6.040;2023-05-15T07:28:43;23.00;56.60
74359;DHT22;62792;46.236;6.040;2023-05-15T07:33:48;23.30;56.00
74359;DHT22;62792;46.236;6.040;2023-05-15T07:38:51;23.40;56.10
74359;DHT22;62792;46.236;6.040;2023-05-15T07:43:53;23.50;55.90
74359;DHT22;62792;46.236;6.040;2023-05-15T07:48:58;23.40;56.00
74359;DHT22;62792;46.236;6.040;2023-05-15T07:54:01;23.30;56.10
74359;DHT22;62792;46.236;6.040;2023-05-15T07:59:04;23.40;56.30
74359;DHT22;62792;46.236;6.040;2023-05-15T08:04:10;23.40;56.30
74359;DHT22;62792;46.236;6.040;2023-05-15T08:09:13;23.50;56.30
74359;DHT22;62792;46.236;6.040;2023-05-15T08:14:16;23.50;56.00
74359;DHT22;62792;46.236;6.040;2023-05-15T08:19:20;23.60;55.90
74359;DHT22;62792;46.236;6.040;2023-05-15T08:24:24;23.50;56.10
74359;DHT22;62792;46.236;6.040;2023-05-15T08:29:27;23.60;54.70
74359;DHT22;62792;46.236;6.040;2023-05-15T08:34:31;23.70;54.80
74359;DHT22;62792;46.236;6.040;2023-05-15T08:39:34;23.80;54.50
74359;DHT22;62792;46.236;6.040;2023-05-15T08:44:37;23.90;54.30
74359;DHT22;62792;46.236;6.040;2023-05-15T08:49:46;23.90;54.30
74359;DHT22;62792;46.236;6.040;2023-05-15T08:54:53;24.00;54.40
74359;DHT22;62792;46.236;6.040;2023-05-15T08:59:56;23.90;54.10
74359;DHT22;62792;46.236;6.040;2023-05-15T09:05:00;24.10;53.90
74359;DHT22;62792;46.236;6.040;2023-05-15T09:10:05;23.90;54.20
74359;DHT22;62792;46.236;6.040;2023-05-15T09:15:08;23.90;54.00
74359;DHT22;62792;46.236;6.040;2023-05-15T09:20:24;24.00;53.80
74359;DHT22;62792;46.236;6.040;2023-05-15T09:25:32;23.90;54.00
74359;DHT22;62792;46.236;6.040;2023-05-15T09:30:38;24.00;53.90
74359;DHT22;62792;46.236;6.040;2023-05-15T09:35:44;24.00;54.00
74359;DHT22;62792;46.236;6.040;2023-05-15T09:40:47;24.00;54.00
74359;DHT22;62792;46.236;6.040;2023-05-15T09:45:50;24.10;53.80
74359;DHT22;62792;46.236;6.040;2023-05-15T09:50:55;24.30;53.40
74359;DHT22;62792;46.236;6.040;2023-05-15T09:55:58;24.30;53.50
74359;DHT22;62792;46.236;6.040;2023-05-15T10:01:01;24.40;53.40
74359;DHT22;62792;46.236;6.040;2023-05-15T10:06:07;24.30;53.30
74359;DHT22;62792;46.236;6.040;2023-05-15T10:11:10;24.20;53.60
74359;DHT22;62792;46.236;6.040;2023-05-15T10:16:13;24.30;53.30
74359;DHT22;62792;46.236;6.040;2023-05-15T10:21:17;24.10;53.50
74359;DHT22;62792;46.236;6.040;2023-05-15T10:26:22;24.10;53.40
74359;DHT22;62792;46.236;6.040;2023-05-15T10:31:26;24.10;53.20
74359;DHT22;62792;46.236;6.040;2023-05-15T10:36:32;24.20;53.20
74359;DHT22;62792;46.236;6.040;2023-05-15T10:41:37;24.30;53.10
74359;DHT22;62792;46.236;6.040;2023-05-15T10:46:40;24.40;53.10
74359;DHT22;62792;46.236;6.040;2023-05-15T10:51:45;24.50;52.90
74359;DHT22;62792;46.236;6.040;2023-05-15T10:56:48;24.50;52.70
74359;DHT22;62792;46.236;6.040;2023-05-15T11:01:52;24.60;52.70
74359;DHT22;62792;46.236;6.040;2023-05-15T11:07:10;24.60;52.60
74359;DHT22;62792;46.236;6.040;2023-05-15T11:12:13;24.50;52.60
74359;DHT22;62792;46.236;6.040;2023-05-15T11:17:16;24.50;52.50
74359;DHT22;62792;46.236;6.040;2023-05-15T11:22:21;24.60;52.50
74359;DHT22;62792;46.236;6.040;2023-05-15T11:27:28;24.70;52.70
74359;DHT22;62792;46.236;6.040;2023-05-15T11:38:10;24.80;52.60
74359;DHT22;62792;46.236;6.040;2023-05-15T11:43:17;24.80;52.80
74359;DHT22;62792;46.236;6.040;2023-05-15T11:48:22;24.80;52.70
74359;DHT22;62792;46.236;6.040;2023-05-15T11:53:27;24.60;52.90
74359;DHT22;62792;46.236;6.040;2023-05-15T11:58:31;24.60;52.90
74359;DHT22;62792;46.236;6.040;2023-05-15T12:03:34;24.80;52.60
74359;DHT22;62792;46.236;6.040;2023-05-15T12:08:38;25.00;52.40
74359;DHT22;62792;46.236;6.040;2023-05-15T12:13:42;25.20;52.40
74359;DHT22;62792;46.236;6.040;2023-05-15T12:18:45;25.30;52.50
74359;DHT22;62792;46.236;6.040;2023-05-15T12:23:51;25.30;52.10
74359;DHT22;62792;46.236;6.040;2023-05-15T12:29:07;25.00;52.40
74359;DHT22;62792;46.236;6.040;2023-05-15T12:34:10;24.90;52.90
74359;DHT22;62792;46.236;6.040;2023-05-15T12:39:15;24.80;52.50
74359;DHT22;62792;46.236;6.040;2023-05-15T12:44:19;24.70;52.20
74359;DHT22;62792;46.236;6.040;2023-05-15T12:49:22;24.80;52.50
74359;DHT22;62792;46.236;6.040;2023-05-15T12:54:26;24.70;52.40
74359;DHT22;62792;46.236;6.040;2023-05-15T12:59:29;24.90;52.60
74359;DHT22;62792;46.236;6.040;2023-05-15T13:04:32;24.90;52.20
74359;DHT22;62792;46.236;6.040;2023-05-15T13:09:37;24.70;52.60
74359;DHT22;62792;46.236;6.040;2023-05-15T13:14:40;24.80;52.60
74359;DHT22;62792;46.236;6.040;2023-05-15T13:19:43;25.10;52.10
74359;DHT22;62792;46.236;6.040;2023-05-15T13:24:47;25.10;52.00
74359;DHT22;62792;46.236;6.040;2023-05-15T13:29:50;25.10;51.90
74359;DHT22;62792;46.236;6.040;2023-05-15T13:34:53;25.00;52.20
74359;DHT22;62792;46.236;6.040;2023-05-15T13:39:59;24.80;52.20
74359;DHT22;62792;46.236;6.040;2023-05-15T13:45:03;24.60;52.00
74359;DHT22;62792;46.236;6.040;2023-05-15T13:50:07;24.50;52.00
74359;DHT22;62792;46.236;6.040;2023-05-15T13:55:13;24.50;52.50
74359;DHT22;62792;46.236;6.040;2023-05-15T14:00:16;24.60;52.20
74359;DHT22;62792;46.236;6.040;2023-05-15T14:05:20;24.70;52.40
74359;DHT22;62792;46.236;6.040;2023-05-15T14:10:24;24.80;52.10
74359;DHT22;62792;46.236;6.040;2023-05-15T14:15:28;25.00;51.60
74359;DHT22;62792;46.236;6.040;2023-05-15T14:20:31;24.90;51.70
74359;DHT22;62792;46.236;6.040;2023-05-15T14:25:36;25.20;51.50
74359;DHT22;62792;46.236;6.040;2023-05-15T14:30:39;25.40;50.80
74359;DHT22;62792;46.236;6.040;2023-05-15T14:35:43;25.60;50.60
74359;DHT22;62792;46.236;6.040;2023-05-15T14:40:47;25.80;50.70
74359;DHT22;62792;46.236;6.040;2023-05-15T14:45:50;25.50;50.90
74359;DHT22;62792;46.236;6.040;2023-05-15T14:50:54;25.50;51.30
74359;DHT22;62792;46.236;6.040;2023-05-15T14:55:58;25.10;51.50
74359;DHT22;62792;46.236;6.040;2023-05-15T15:01:01;25.50;51.00
74359;DHT22;62792;46.236;6.040;2023-05-15T15:06:04;25.70;50.40
74359;DHT22;62792;46.236;6.040;2023-05-15T15:11:09;25.30;51.00
74359;DHT22;62792;46.236;6.040;2023-05-15T15:16:11;25.50;50.80
74359;DHT22;62792;46.236;6.040;2023-05-15T15:21:15;25.80;50.20
74359;DHT22;62792;46.236;6.040;2023-05-15T15:26:19;25.50;50.20
74359;DHT22;62792;46.236;6.040;2023-05-15T15:31:22;25.20;50.30
74359;DHT22;62792;46.236;6.040;2023-05-15T15:36:26;25.10;50.40
74359;DHT22;62792;46.236;6.040;2023-05-15T15:41:30;25.00;50.50
74359;DHT22;62792;46.236;6.040;2023-05-15T15:46:34;24.80;50.30
74359;DHT22;62792;46.236;6.040;2023-05-15T15:51:36;24.70;50.70
74359;DHT22;62792;46.236;6.040;2023-05-15T15:56:42;24.60;50.90
74359;DHT22;62792;46.236;6.040;2023-05-15T16:01:48;24.70;50.80
74359;DHT22;62792;46.236;6.040;2023-05-15T16:06:51;24.60;50.50
74359;DHT22;62792;46.236;6.040;2023-05-15T16:11:56;26.00;48.50
74359;DHT22;62792;46.236;6.040;2023-05-15T16:16:59;26.10;48.30
74359;DHT22;62792;46.236;6.040;2023-05-15T16:22:05;25.90;48.90
74359;DHT22;62792;46.236;6.040;2023-05-15T16:27:10;26.10;48.20
74359;DHT22;62792;46.236;6.040;2023-05-15T16:32:13;26.10;48.30
74359;DHT22;62792;46.236;6.040;2023-05-15T16:37:16;25.70;48.90
74359;DHT22;62792;46.236;6.040;2023-05-15T16:42:20;25.60;49.40
74359;DHT22;62792;46.236;6.040;2023-05-15T16:47:23;25.40;49.50
74359;DHT22;62792;46.236;6.040;2023-05-15T16:52:27;25.30;49.80
74359;DHT22;62792;46.236;6.040;2023-05-15T16:57:31;25.20;49.80
74359;DHT22;62792;46.236;6.040;2023-05-15T17:02:34;25.10;49.90
74359;DHT22;62792;46.236;6.040;2023-05-15T17:07:37;25.10;50.10
74359;DHT22;62792;46.236;6.040;2023-05-15T17:12:42;25.00;50.10
74359;DHT22;62792;46.236;6.040;2023-05-15T17:17:45;25.00;50.50
74359;DHT22;62792;46.236;6.040;2023-05-15T17:22:48;24.90;50.30
74359;DHT22;62792;46.236;6.040;2023-05-15T17:27:52;24.90;50.40
74359;DHT22;62792;46.236;6.040;2023-05-15T17:32:55;24.80;50.40
74359;DHT22;62792;46.236;6.040;2023-05-15T17:37:58;24.80;50.10
74359;DHT22;62792;46.236;6.040;2023-05-15T17:43:02;24.70;50.40
74359;DHT22;62792;46.236;6.040;2023-05-15T17:48:05;24.70;50.50
74359;DHT22;62792;46.236;6.040;2023-05-15T17:53:08;24.60;50.70
74359;DHT22;62792;46.236;6.040;2023-05-15T17:58:12;24.60;50.50
74359;DHT22;62792;46.236;6.040;2023-05-15T18:03:21;24.50;50.80
74359;DHT22;62792;46.236;6.040;2023-05-15T18:08:25;24.50;50.70
74359;DHT22;62792;46.236;6.040;2023-05-15T18:13:30;24.40;51.00
74359;DHT22;62792;46.236;6.040;2023-05-15T18:18:33;24.40;50.90
74359;DHT22;62792;46.236;6.040;2023-05-15T18:23:36;24.50;50.70
74359;DHT22;62792;46.236;6.040;2023-05-15T18:28:40;24.40;51.00
74359;DHT22;62792;46.236;6.040;2023-05-15T18:33:43;24.40;50.90
74359;DHT22;62792;46.236;6.040;2023-05-15T18:38:46;24.40;51.00
74359;DHT22;62792;46.236;6.040;2023-05-15T18:43:51;24.30;51.00
74359;DHT22;62792;46.236;6.040;2023-05-15T18:48:54;24.30;51.10
74359;DHT22;62792;46.236;6.040;2023-05-15T18:53:57;24.30;51.10
74359;DHT22;62792;46.236;6.040;2023-05-15T18:59:01;24.20;51.00
74359;DHT22;62792;46.236;6.040;2023-05-15T19:04:04;24.30;51.20
74359;DHT22;62792;46.236;6.040;2023-05-15T19:09:07;24.20;51.30
74359;DHT22;62792;46.236;6.040;2023-05-15T19:14:12;24.10;51.30
74359;DHT22;62792;46.236;6.040;2023-05-15T19:19:17;24.10;51.40
74359;DHT22;62792;46.236;6.040;2023-05-15T19:24:20;24.10;51.10
74359;DHT22;62792;46.236;6.040;2023-05-15T19:29:24;24.20;51.20
74359;DHT22;62792;46.236;6.040;2023-05-15T19:34:29;24.00;51.30
74359;DHT22;62792;46.236;6.040;2023-05-15T19:39:31;24.00;51.40
74359;DHT22;62792;46.236;6.040;2023-05-15T19:44:36;23.90;51.60
74359;DHT22;62792;46.236;6.040;2023-05-15T19:49:39;24.00;51.30
74359;DHT22;62792;46.236;6.040;2023-05-15T19:54:42;24.00;51.40
74359;DHT22;62792;46.236;6.040;2023-05-15T19:59:47;23.90;51.40
74359;DHT22;62792;46.236;6.040;2023-05-15T20:04:50;24.00;51.40
74359;DHT22;62792;46.236;6.040;2023-05-15T20:09:53;24.00;51.50
74359;DHT22;62792;46.236;6.040;2023-05-15T20:14:58;24.00;51.30
74359;DHT22;62792;46.236;6.040;2023-05-15T20:20:00;23.90;51.50
74359;DHT22;62792;46.236;6.040;2023-05-15T20:25:06;23.90;51.50
74359;DHT22;62792;46.236;6.040;2023-05-15T20:30:11;23.90;51.60
74359;DHT22;62792;46.236;6.040;2023-05-15T20:35:14;23.90;51.60
74359;DHT22;62792;46.236;6.040;2023-05-15T20:40:17;23.90;51.50
74359;DHT22;62792;46.236;6.040;2023-05-15T20:45:24;23.90;51.40
74359;DHT22;62792;46.236;6.040;2023-05-15T20:50:27;23.80;51.70
74359;DHT22;62792;46.236;6.040;2023-05-15T20:55:30;23.90;51.50
74359;DHT22;62792;46.236;6.040;2023-05-15T21:00:34;23.90;51.50
74359;DHT22;62792;46.236;6.040;2023-05-15T21:05:37;23.80;51.70
74359;DHT22;62792;46.236;6.040;2023-05-15T21:10:40;23.80;51.70
74359;DHT22;62792;46.236;6.040;2023-05-15T21:15:44;23.80;51.60
74359;DHT22;62792;46.236;6.040;2023-05-15T21:20:47;23.70;51.70
74359;DHT22;62792;46.236;6.040;2023-05-15T21:25:50;23.80;51.60
74359;DHT22;62792;46.236;6.040;2023-05-15T21:30:54;23.80;51.80
74359;DHT22;62792;46.236;6.040;2023-05-15T21:35:57;23.70;51.60
74359;DHT22;62792;46.236;6.040;2023-05-15T21:41:00;23.70;51.50
74359;DHT22;62792;46.236;6.040;2023-05-15T21:46:04;23.80;51.60
74359;DHT22;62792;46.236;6.040;2023-05-15T21:51:08;23.60;51.80
74359;DHT22;62792;46.236;6.040;2023-05-15T21:56:10;23.70;51.60
74359;DHT22;62792;46.236;6.040;2023-05-15T22:01:15;23.80;51.70
74359;DHT22;62792;46.236;6.040;2023-05-15T22:06:18;23.80;51.60
74359;DHT22;62792;46.236;6.040;2023-05-15T22:11:21;23.60;51.60
74359;DHT22;62792;46.236;6.040;2023-05-15T22:16:25;23.70;51.60
74359;DHT22;62792;46.236;6.040;2023-05-15T22:21:28;23.60;52.70
74359;DHT22;62792;46.236;6.040;2023-05-15T22:26:32;23.70;51.60
74359;DHT22;62792;46.236;6.040;2023-05-15T22:31:37;23.70;51.60
74359;DHT22;62792;46.236;6.040;2023-05-15T22:36:40;23.60;52.40
74359;DHT22;62792;46.236;6.040;2023-05-15T22:41:43;23.60;52.80
74359;DHT22;62792;46.236;6.040;2023-05-15T22:46:47;23.50;52.50
74359;DHT22;62792;46.236;6.040;2023-05-15T22:51:50;23.60;52.60
74359;DHT22;62792;46.236;6.040;2023-05-15T22:56:53;23.60;52.70
74359;DHT22;62792;46.236;6.040;2023-05-15T23:01:57;23.50;52.70
74359;DHT22;62792;46.236;6.040;2023-05-15T23:07:00;23.50;52.60
74359;DHT22;62792;46.236;6.040;2023-05-15T23:12:03;23.50;52.80
74359;DHT22;62792;46.236;6.040;2023-05-15T23:17:08;23.50;52.70
74359;DHT22;62792;46.236;6.040;2023-05-15T23:22:11;23.50;52.70
74359;DHT22;62792;46.236;6.040;2023-05-15T23:27:14;23.60;52.70
74359;DHT22;62792;46.236;6.040;2023-05-15T23:32:18;23.40;52.40
74359;DHT22;62792;46.236;6.040;2023-05-15T23:37:21;23.40;52.70
74359;DHT22;62792;46.236;6.040;2023-05-15T23:42:24;23.40;52.50
74359;DHT22;62792;46.236;6.040;2023-05-15T23:47:28;23.40;52.40
74359;DHT22;62792;46.236;6.040;2023-05-15T23:52:31;23.40;52.50
74359;DHT22;62792;46.236;6.040;2023-05-15T23:57:34;23.50;52.40
